עמוד ראשי
METAR-TAF:

METAR-TAF

שדות תעופה :

נמל התעופה הבינלאומי ניואה

Alofi, ניואה

קו רוחב: 19-04S, קו אורך: 169-55W, גובה: 20מטר

תצפית מזג אוויר נוכחית

הדו"ח נערך לפני 45דקות, בשעה 03:30 UTC
רוח 9קשר מכיוון מזרח
טמפרטורת 26 צלסיוס
לחות 74%
לחץ 1017 hPa
ראות 10 קילומטר או יותר

METAR: NIUE 210330Z AUTO 10009KT 9999 BKN023/// 26/21 Q1017

זמן: 17:15 (04:15 UTC)

תחזית

הדו"ח נערך לפני 4 שעות ו 48דקות, בשעה 23:27 UTC
תחזית בתוקף מ 21 ב 00 UTC עד 21 ב 24 UTC
רוח 8קשר מכיוון מזרח/דרום-מזרח
ראות 10 קילומטר או יותר
מעט עננים בגובה 2000רגל

TAF: NIUE 202327Z 2100/2124 11008KT 9999 FEW020

תצפיות ותחזיות מזג אוויר לגבי יותר מ- 4,000 שדות תעופה ברחבי העולם. דוחות METAR ו- TAF.

התחנות הזמינות מסומנות בנקודות צהובות ואדומות על גבי המפה.

העבר את העכבר לנקודה הצבעונית על מנת לראות את שם התחנה.

לאחר מכן, לחץ כדי לראות את תוכן ואת תחזיות מזג האוויר.

כדי לשנות את המפה: לחץ על הכפתורים הירוקים עם הפלוס השחור כדי להתקרב; על הכפתור הירוק עם המקף כדי להתרחק; או בחיצים הירוקים למפות סמוכות.


METAR-TAF: